Reno (UNR), Valley Road, Nevada Weather observations

Data are for observation ending at time listed.
 Day   Time    Ave.   Ave.  Ave.  Vector   Max.    Total    Solar   Rl      Baro.   Ave.  
  of    of     Air    Rel.  Wind   Wind    Wind   Precip.   Rad.    in      Pres.   Soil  
Year   Day     Temp.  Hum.  Speed  Dir.    Gust                                     Temp. 
2026   (PST)    F      %     mph   deg.    mph      in.     W/m2    W/m2     mb.     F   
-----------------------------------------------------------------------------------------
 128   16:00   80.6    14    8.1   292     15.4     0.00     598     373    863.0   74.7
 128   16:10   79.8    15    9.1   311     15.3     0.00     564     372    863.0   74.9
 128   16:20   80.1    15    9.6   321     20.9     0.00     528     372    863.0   75.0
 128   16:30   80.0    15   10.1   328     17.7     0.00     488     372    862.9   75.1
 128   16:40   78.9    16   10.9   332     17.7     0.00     459     369    863.0   75.2
 128   16:50   79.1    17    9.2   322     16.4     0.00     425     370    862.9   75.3
 128   17:00   79.1    17   10.2   327     16.6     0.00     389     370    862.9   75.4
 128   17:10   78.7    17   10.4   318     18.2     0.00     353     367    862.9   75.4
 128   17:20   78.4    17   10.1   330     17.4     0.00     318     364    863.0   75.5
 128   17:30   78.1    18    9.5   337     17.8     0.00     282     364    863.0   75.5
 128   17:40   78.1    18    9.3   330     17.5     0.00     248     361    863.0   75.5
 128   17:50   77.7    18    8.6   324     16.3     0.00     213     360    863.1   75.5
 128   18:00   77.5    20    7.9   327     12.0     0.00     180     362    863.1   75.4
 128   18:10   76.7    21    8.9   319     14.2     0.00     149     362    863.2   75.4
 128   18:20   76.3    21    6.3   316     10.1     0.00     117     358    863.1   75.3
 128   18:30   76.0    22    4.8   298      8.5     0.00      80     357    863.2   75.2
 128   18:40   74.5    22    5.3   291      9.1     0.00      19     356    863.3   75.1
 128   18:50   73.0    24    5.1   286      8.7     0.00      11     353    863.5   74.9
 128   19:00   72.1    24    3.7   306      6.7     0.00       7     350    863.5   74.8
 128   19:10   71.4    25    4.1   288      6.2     0.00       3     348    863.6   74.7
 128   19:20   71.3    25    4.1   282      7.0     0.00       1     348    863.7   74.5
 128   19:30   70.8    26    5.4   253      9.3     0.00       0     347    863.8   74.4
 128   19:40   70.3    27    4.9   266      8.8     0.00       0     349    863.9   74.2
 128   19:50   70.0    27    4.5   285      9.3     0.00       0     350    864.0   74.0
 128   20:00   69.7    28    5.2   282      8.5     0.00       0     348    864.1   73.8
 128   20:10   70.0    29    5.9   278     13.0     0.00       0     350    864.1   73.6
 128   20:20   69.6    30    5.8   282     10.2     0.00       0     348    864.2   73.4
 128   20:30   69.5    33    6.2   283     13.0     0.00       0     348    864.2   73.2
 128   20:40   69.5    34    7.3   283     13.3     0.00       0     349    864.3   73.1
 128   20:50   69.3    35    6.6   288     10.9     0.00       0     348    864.4   72.9
 128   21:00   68.6    34    5.2   315      8.8     0.00       0     346    864.5   72.7
 128   21:10   67.8    33    5.9   320      9.6     0.00       0     344    864.7   72.5
 128   21:20   66.7    36    6.3   317     10.7     0.00       0     342    864.8   72.3
 128   21:30   67.2    36    4.0   306     10.1     0.00       0     343    864.8   72.2
 128   21:40   66.0    38    2.2   304      6.3     0.00       0     343    865.0   72.0
 128   21:50   65.7    39    3.5    86      5.4     0.00       0     340    865.1   71.8
 128   22:00   65.6    40    1.4    67      3.9     0.00       0     339    865.1   71.7
 128   22:10   65.6    40    1.8    10      3.1     0.00       0     337    865.0   71.5
 128   22:20   63.4    44    3.5   306      6.2     0.00       0     333    865.0   71.3
 128   22:30   63.2    45    4.2   306      6.5     0.00       0     333    865.0   71.2
 128   22:40   63.6    45    3.2   316      5.7     0.00       0     333    865.0   71.0
 128   22:50   63.2    46    1.5   293      4.2     0.00       0     332    865.1   70.9
 128   23:00   62.7    47    2.7    94      3.9     0.00       0     330    865.2   70.7
 128   23:10   61.9    48    2.0    32      4.0     0.00       0     333    865.2   70.5
 128   23:20   60.0    52    0.9   275      3.4     0.00       0     330    865.2   70.4
 128   23:30   59.1    54    1.7   316      3.8     0.00       0     326    865.2   70.2
 128   23:40   57.8    57    2.3   297      3.4     0.00       0     326    865.2   70.0
 128   23:50   57.9    58    1.6   212      3.0     0.00       0     326    865.3   69.9
 129    0:00   57.5    58    1.8   208      3.4     0.00       0     325    865.3   69.7
 129    0:10   57.5    59    2.6   295      3.9     0.00       0     322    865.4   69.5
 129    0:20   57.2    60    1.5   268      3.7     0.00       0     324    865.3   69.4
 129    0:30   57.0    60    2.0   328      3.6     0.00       0     321    865.2   69.2
 129    0:40   56.3    62    1.1   339      3.1     0.00       0     322    865.3   69.0
 129    0:50   55.6    63    1.3   319      2.5     0.00       0     321    865.4   68.9
 129    1:00   54.6    65    1.9   238      3.8     0.00       0     319    865.4   68.7
 129    1:10   55.4    64    2.3   322      3.9     0.00       0     316    865.4   68.6
 129    1:20   55.0    65    1.9   272      2.8     0.00       0     319    865.5   68.4
 129    1:30   54.1    66    2.0   327      3.8     0.00       0     316    865.5   68.3
 129    1:40   54.1    66    1.7   278      3.6     0.00       0     316    865.5   68.1
 129    1:50   53.7    66    2.4   278      5.2     0.00       0     314    865.6   67.9
 129    2:00   54.2    65    1.6   269      2.8     0.00       0     316    865.6   67.8
 129    2:10   54.2    64    1.9   173      3.6     0.00       0     314    865.6   67.6
 129    2:20   53.5    66    1.0   286      2.2     0.00       0     315    865.6   67.5
 129    2:30   53.6    66    1.2   311      2.0     0.00       0     313    865.7   67.3
 129    2:40   53.0    67    2.1   267      2.8     0.00       0     312    865.7   67.2
 129    2:50   52.5    68    2.0   260      2.9     0.00       0     311    865.8   67.0
 129    3:00   52.2    69    1.6   260      2.7     0.00       0     311    865.7   66.9
 129    3:10   51.7    70    1.5   340      2.4     0.00       0     309    865.7   66.8
 129    3:20   51.5    70    2.5   310      3.7     0.00       0     308    865.7   66.6
 129    3:30   51.5    70    2.3   299      3.9     0.00       0     308    865.9   66.5
 129    3:40   51.5    70    2.8   306      4.2     0.00       0     305    865.8   66.3
 129    3:50   51.8    71    3.1   273      5.0     0.00       0     302    865.8   66.2
 129    4:00   52.3    70    2.8   275      4.7     0.00       0     303    865.9   66.1
 129    4:10   52.0    70    1.6   288      5.0     0.00       0     302    865.9   65.9
 129    4:20   50.9    72    1.4   290      2.7     0.00       0     304    865.9   65.8
 129    4:30   49.9    73    2.2   265      3.5     0.00       0     303    866.0   65.6
 129    4:40   49.5    75    2.1   266      3.3     0.00       0     303    866.1   65.5
 129    4:50   50.1    74    2.0   270      3.4     0.00       2     302    866.0   65.4
 129    5:00   49.7    74    1.4   296      2.7     0.00       7     302    866.2   65.2
 129    5:10   49.2    75    1.9   323      2.8     0.00      18     300    866.3   65.1
 129    5:20   50.1    73    1.5   291      2.3     0.00      36     297    866.5   65.0
 129    5:30   50.7    71    1.8   330      2.4     0.00      62     301    866.5   64.9
 129    5:40   51.8    70    2.5   278      4.9     0.00      95     300    866.6   64.7
 129    5:50   53.3    65    3.7   252      5.2     0.00     128     304    866.7   64.6
 129    6:00   55.5    61    1.9   240      3.6     0.00     159     306    866.7   64.5
 129    6:10   58.1    57    2.2   232      3.9     0.00     190     307    866.8   64.4
 129    6:20   58.8    55    1.3   248      2.2     0.00     222     312    866.8   64.3
 129    6:30   61.4    51    2.1   219      3.0     0.00     256     313    866.8   64.2
 129    6:40   63.0    49    1.8   189      3.0     0.00     290     319    866.9   64.2
 129    6:50   65.2    44    1.9   151      3.9     0.00     324     320    866.9   64.1
 129    7:00   65.3    43    2.5   112      4.1     0.00     360     323    866.9   64.1
 129    7:10   64.7    43    1.5   102      3.4     0.00     396     325    866.9   64.1
 129    7:20   65.3    42    1.5    56      3.3     0.00     431     329    866.8   64.1
 129    7:30   64.5    43    1.8    42      3.3     0.00     467     332    866.9   64.2
 129    7:40   67.7    38    1.6   196      3.9     0.00     501     334    866.9   64.2
 129    7:50   67.4    37    1.7   232      3.7     0.00     534     338    866.8   64.3
 129    8:00   68.9    35    1.5    68      5.6     0.00     569     342    866.8   64.4
 129    8:10   67.9    35    2.6    65      5.2     0.00     603     346    866.8   64.5
 129    8:20   68.1    34    2.4    98      4.7     0.00     635     346    866.7   64.7
 129    8:30   67.5    34    3.0    25      5.7     0.00     669     347    866.7   64.9
 129    8:40   69.3    32    3.0    92      6.8     0.00     699     349    866.6   65.1
 129    8:50   72.9    29    1.6   138      4.1     0.00     729     350    866.6   65.3
 129    9:00   73.4    27    2.1    99      7.2     0.00     760     356    866.6   65.5
 129    9:10   72.6    25    3.0    58      6.7     0.00     787     359    866.6   65.7
 129    9:20   71.8    25    3.9    86      8.4     0.00     815     360    866.5   65.9
 129    9:30   74.0    24    4.0   136      8.6     0.00     840     359    866.4   66.0
 129    9:40   74.7    22    4.7   118      9.3     0.00     864     359    866.5   66.1
 129    9:50   74.9    22    5.7   118     16.1     0.00     889     363    866.4   66.2
 129   10:00   75.5    21    4.2   145      9.4     0.00     910     362    866.5   66.3
 129   10:10   76.6    20    3.5   147      6.9     0.00     929     363    866.3   66.3
 129   10:20   76.6    18    4.9    76     15.0     0.00     949     366    866.4   66.4
 129   10:30   75.7    19    6.7    80     12.9     0.00     966     370    866.2   66.5
 129   10:40   77.6    19    6.0   166     12.4     0.00     981     366    866.2   66.7
 129   10:50   78.7    18    5.9   147      9.9     0.00     995     369    865.9   66.9
 129   11:00   79.6    18    3.9   164      7.8     0.00    1007     370    865.9   67.2
 129   11:10   79.9    17    2.8   168      8.2     0.00    1019     374    865.7   67.5
 129   11:20   77.7    17    3.7    25      9.1     0.00    1026     377    865.6   67.9
 129   11:30   79.4    18    5.2   231     11.2     0.00    1034     378    865.5   68.3
 129   11:40   80.5    17    3.6   222      8.3     0.00    1038     380    865.4   68.8
 129   11:50   81.2    17    3.1   191      7.6     0.00    1042     381    865.3   69.2
 129   12:00   80.6    16    3.7   115      8.8     0.00    1042     382    865.0   69.7
 129   12:10   81.7    16    5.2   195     11.7     0.00    1040     384    864.9   70.1
 129   12:20   82.3    16    6.4   150     13.0     0.00    1038     381    864.8   70.6
 129   12:30   82.5    15    3.8   205     10.6     0.00    1038     383    864.8   71.0
 129   12:40   82.9    15    4.9   215     11.0     0.00    1032     385    864.6   71.5
 129   12:50   83.7    15    6.7   174     11.5     0.00    1022     387    864.5   71.9
 129   13:00   83.9    15    4.4   188      9.2     0.00    1014     385    864.4   72.4
 129   13:10   82.1    14    4.9    52     10.9     0.00    1004     387    864.4   72.8
 129   13:20   82.0    14    5.3    73     11.4     0.00     992     385    864.4   73.1
 129   13:30   81.7    14    4.0    78      9.5     0.00     979     384    864.2   73.4
 129   13:40   82.6    14    6.7    82     13.2     0.00     963     386    864.2   73.7
 129   13:50   84.3    13    4.9   186      9.7     0.00     946     384    864.0   74.0
 129   14:00   85.6    13    4.6   193      9.9     0.00     926     385    864.0   74.2
 129   14:10   83.9    13    4.5    62     12.1     0.00     906     386    863.9   74.4
 129   14:20   84.2    13    6.7   144     13.7     0.00     884     384    863.9   74.6
 129   14:30   84.8    13    4.7   139     10.5     0.00     861     384    863.7   74.7
 129   14:40   84.6    13    4.7   144      9.9     0.00     839     384    863.6   74.9
 129   14:50   85.0    12    4.9   178      9.9     0.00     806     384    863.4   75.1
 129   15:00   85.8    12    4.0   183      8.8     0.00     786     384    863.2   75.3
 129   15:10   87.0    12    2.9   211      7.1     0.00     758     384    863.2   75.5
 129   15:20   86.6    12    5.1   123      9.7     0.00     729     388    863.1   75.8
 129   15:30   85.0    12    5.5   100     10.1     0.00     686     385    863.1   76.0
 129   15:40   86.0    12    3.7   156      7.9     0.00     664     381    863.0   76.2
 129   15:50   87.3    12    4.5   204     10.5     0.00     635     384    863.0   76.3

Return to Reno (UNR), Nevada graphs page.


Western Regional Climate Center,wrcc@dri.edu